• Join FlightAware (Why Join?)
  • Login
  • US Flag 
01:28AM EDT


 

Airport Tracker/Info


-or-


 

Live Flight TrackerFlight Track Log ✈ KLM765 ✈ 30-Apr-2013 ✈ TNCB / BON - EHAM / AMS

Flight Track Log - Related Links

Times and Time Zones

All times are in EDT time to prevent confusion due to time zone crossing. See the KLM765 flight status page for this flight to view local times or setup timezone preferences in your user account.

Time Position Orientation Groundspeed Altitude Reporting Facility
EDT Latitude Longitude Course Direction KTS MPH feet Rate Location/Type
07:56PM 13.5558 -67.1023 38° Northeast  Level Estimated
07:57PM 13.6623 -67.0144 39° Northeast  Level Estimated
07:58PM 13.7688 -66.9264 39° Northeast  Level Estimated
07:59PM 13.8753 -66.8383 39° Northeast  Level Estimated
08:00PM 13.9817 -66.7502 39° Northeast  Level Estimated
08:01PM 14.0881 -66.6620 39° Northeast  Level Estimated
08:02PM 14.1944 -66.5737 39° Northeast  Level Estimated
08:03PM 14.3008 -66.4853 39° Northeast  Level Estimated
08:04PM 14.4071 -66.3968 39° Northeast  Level Estimated
08:05PM 14.5133 -66.3083 39° Northeast  Level Estimated
08:06PM 14.6195 -66.2196 39° Northeast  Level Estimated
08:07PM 14.7257 -66.1309 39° Northeast  Level Estimated
08:08PM 14.8319 -66.0421 39° Northeast  Level Estimated
08:09PM 14.9380 -65.9532 39° Northeast  Level Estimated
08:10PM 15.0441 -65.8642 39° Northeast  Level Estimated
08:11PM 15.1501 -65.7751 39° Northeast  Level Estimated
08:12PM 15.2562 -65.6859 39° Northeast  Level Estimated
08:13PM 15.3621 -65.5967 39° Northeast  Level Estimated
08:13PM 14.8833 -66.2333 39° Northeast 520 598 35,500  Level San Juan Center
08:14PM 15.4681 -65.5073 39° Northeast  Level Estimated
08:14PM 15.0000 -66.1333 40° Northeast 520 598 36,000  Level San Juan Center
08:15PM 15.5740 -65.4179 39° Northeast  Level Estimated
08:15PM 15.0833 -66.0500 44° Northeast 510 587 36,300  Level San Juan Center
08:16PM 15.6799 -65.3284 39° Northeast  Level Estimated
08:16PM 15.2167 -65.9333 40° Northeast 520 598 37,000  Level San Juan Center
08:17PM 15.7857 -65.2387 39° Northeast  Level Estimated
08:17PM 15.3167 -65.8333 44° Northeast 520 598 37,000  Level San Juan Center
08:18PM 15.8915 -65.1490 39° Northeast  Level Estimated
08:18PM 15.4167 -65.7333 44° Northeast 520 598 37,000  Level San Juan Center
08:19PM 15.9973 -65.0592 39° Northeast  Level Estimated
08:19PM 15.5333 -65.6167 44° Northeast 520 598 37,000  Level San Juan Center
08:20PM 15.6333 -65.5167 44° Northeast 520 598 37,000  Level San Juan Center
08:21PM 15.7333 -65.4167 44° Northeast 530 610 37,000  Level San Juan Center
08:22PM 15.8500 -65.3167 40° Northeast 520 598 37,000  Level San Juan Center
08:23PM 15.9500 -65.2000 48° Northeast 520 598 37,000  Level San Juan Center
08:24PM 16.0667 -65.1000 39° Northeast 500 575 37,000  Level San Juan Center
08:25PM 16.1667 -65.0000 44° Northeast 510 587 37,000  Level San Juan Center
08:26PM 16.2667 -64.9000 44° Northeast 520 598 37,000  Level San Juan Center
08:27PM 16.3833 -64.7833 44° Northeast 520 598 37,000  Level San Juan Center
08:28PM 16.4833 -64.6833 44° Northeast 520 598 37,000  Level San Juan Center
08:29PM 16.6000 -64.5667 44° Northeast 530 610 37,000  Level San Juan Center
08:30PM 16.6833 -64.4667 49° Northeast 530 610 37,000  Level San Juan Center
08:31PM 16.8000 -64.3667 39° Northeast 530 610 37,000  Level San Juan Center
08:37PM 17.4140 -63.7580 39° Northeast 530 610 37,000  Level FlightAware
08:38PM 17.4770 -63.6950 44° Northeast 530 610 37,000  Level FlightAware
08:38PM 17.5370 -63.6340 44° Northeast 530 610 37,000  Level FlightAware
08:39PM 17.6120 -63.5580 44° Northeast 530 610 37,000  Level FlightAware
08:40PM 17.7100 -63.4570 44° Northeast 532 612 37,000  Level FlightAware
08:41PM 17.8340 -63.3290 44° Northeast 530 610 37,000  Level FlightAware
08:42PM 17.8940 -63.2680 44° Northeast 528 608 37,000  Level FlightAware
08:42PM 17.9760 -63.1840 44° Northeast 527 606 37,000  Level FlightAware
08:43PM 18.0790 -63.0780 44° Northeast 527 606 37,000  Level FlightAware
08:44PM 18.1760 -62.9790 44° Northeast 528 608 37,000  Level FlightAware
08:45PM 18.2510 -62.9010 45° Northeast 529 609 37,000  Level FlightAware
08:46PM 18.3130 -62.8380 44° Northeast 529 609 37,000  Level FlightAware
08:46PM 18.3730 -62.7770 44° Northeast 529 609 37,000  Level FlightAware
08:47PM 18.4730 -62.6720 45° Northeast 531 611 37,000  Level FlightAware
08:48PM 18.5590 -62.5830 44° Northeast 532 612 37,000  Level FlightAware
08:49PM 18.6310 -62.5120 43° Northeast 532 612 37,000  Level FlightAware
08:49PM 18.6920 -62.4520 43° Northeast 532 612 37,000  Level FlightAware
08:50PM 18.7690 -62.3770 43° Northeast 532 612 37,000  Level FlightAware
08:51PM 18.8300 -62.3160 43° Northeast 532 612 37,000  Level FlightAware
08:52PM 18.8910 -62.2560 43° Northeast 532 612 37,000  Level FlightAware
08:52PM 18.9520 -62.1960 43° Northeast 532 612 37,000  Level FlightAware
08:53PM 19.0140 -62.1350 43° Northeast 532 612 37,000  Level FlightAware
08:54PM 19.0900 -62.0600 43° Northeast 532 612 37,000  Level FlightAware
08:54PM 19.1510 -62.0000 43° Northeast 532 612 37,000  Level FlightAware
08:55PM 19.2120 -61.9390 43° Northeast 532 612 37,000  Level FlightAware
08:56PM 19.3333 -61.7667 45° Northeast 533 613 37,000  Level New York Oceanic (ODAPS)
08:56PM 19.2740 -61.8790 42° Northeast 532 612 37,000  Level FlightAware
08:56PM 19.4333 -61.6500 45° Northeast 540 621 37,000  Level San Juan Center
08:56PM 19.3350 -61.8180 43° Northeast 532 612 37,000  Level FlightAware
08:57PM 19.4110 -61.7430 43° Northeast 532 612 37,000  Level FlightAware
08:58PM 19.6090 -61.4860 51° Northeast 535 616 37,000  Level FlightAware
08:59PM 19.6710 -61.4010 52° Northeast 535 616 37,000  Level FlightAware
08:59PM 19.7230 -61.3310 52° Northeast 535 616 37,000  Level FlightAware
09:00PM 19.7750 -61.2600 52° Northeast 535 616 37,000  Level FlightAware
09:01PM 19.8950 -61.1840 31° Northeast 534 615 37,000  Level FlightAware
09:01PM 19.9500 -61.1167 45° Northeast 525 604 37,000  Level New York Oceanic (ODAPS)
09:02PM 20.0090 -61.0620 45° Northeast 535 616 37,000  Level FlightAware
09:03PM 20.0970 -60.9710 44° Northeast 537 618 37,000  Level FlightAware
09:03PM 20.1870 -60.8730 46° Northeast 540 621 37,000  Level FlightAware
09:04PM 20.2520 -60.8040 45° Northeast 540 621 37,000  Level FlightAware
09:05PM 20.3040 -60.7480 45° Northeast 540 621 37,000  Level FlightAware
09:05PM 20.3760 -60.6740 44° Northeast 540 621 37,000  Level FlightAware
09:06PM 20.4370 -60.6110 44° Northeast 540 621 37,000  Level FlightAware
09:07PM 20.4980 -60.5480 45° Northeast 540 621 37,000  Level FlightAware
09:08PM 20.5750 -60.4690 44° Northeast 540 621 37,000  Level FlightAware
09:08PM 20.6360 -60.4060 44° Northeast 540 621 37,000  Level FlightAware
09:09PM 20.6970 -60.3430 44° Northeast 540 621 37,000  Level FlightAware
09:10PM 20.7580 -60.2800 44° Northeast 540 621 37,000  Level FlightAware
09:10PM 20.8340 -60.2010 44° Northeast 540 621 37,000  Level FlightAware
09:11PM 20.8960 -60.1380 44° Northeast 540 621 37,000  Level FlightAware
09:11PM 21.0000 -60.0000 48° Northeast 526 605 37,000  Level New York Oceanic (ODAPS)
09:12PM 20.9570 -60.0750 44° Northeast 540 621 37,000  Level FlightAware
09:12PM 21.0180 -60.0120 44° Northeast 540 621 37,000  Level FlightAware
09:13PM 21.0790 -59.9480 44° Northeast 540 621 37,000  Level FlightAware
09:14PM 21.1400 -59.8850 44° Northeast 540 621 37,000  Level FlightAware
09:15PM 21.2160 -59.8060 44° Northeast 540 621 37,000  Level FlightAware
09:15PM 21.4000 -59.5333 48° Northeast 517 595 37,000  Level New York Oceanic (ODAPS)
09:17PM 21.3904 -59.5940 49° Northeast  Level FlightAware Approximate
09:18PM 21.5949 -59.2864 48° Northeast 526 605 37,000  Level FlightAware Transoceanic
09:19PM 21.6937 -59.1669 48° Northeast 526 605 37,000  Level FlightAware Transoceanic
09:20PM 21.7925 -59.0472 48° Northeast 526 605 37,000  Level FlightAware Transoceanic
09:21PM 21.8912 -58.9273 48° Northeast 526 605 37,000  Level FlightAware Transoceanic
09:22PM 22.0555 -58.7373 49° Northeast 517 595 37,000  Level FlightAware Transoceanic
09:23PM 22.1488 -58.6230 49° Northeast 517 595 37,000  Level FlightAware Transoceanic
09:24PM 22.2421 -58.5085 49° Northeast 517 595 37,000  Level FlightAware Transoceanic
09:25PM 22.3352 -58.3939 49° Northeast 517 595 37,000  Level FlightAware Transoceanic
09:26PM 22.4283 -58.2791 49° Northeast 517 595 37,000  Level FlightAware Transoceanic
09:27PM 22.5213 -58.1642 49° Northeast 517 595 37,000  Level FlightAware Transoceanic
09:28PM 22.6143 -58.0491 49° Northeast 517 595 37,000  Level FlightAware Transoceanic
09:29PM 22.7071 -57.9338 49° Northeast 517 595 37,000  Level FlightAware Transoceanic
09:29PM 22.7333 -57.9000 49° Northeast 507 583 37,000  Level New York Oceanic (ODAPS)
09:30PM 22.7999 -57.8185 49° Northeast 517 595 37,000  Level FlightAware Transoceanic
09:31PM 22.8925 -57.7029 49° Northeast 517 595 37,000  Level FlightAware Transoceanic
09:32PM 22.9851 -57.5872 49° Northeast 517 595 37,000  Level FlightAware Transoceanic
09:33PM 23.0776 -57.4713 49° Northeast 517 595 37,000  Level FlightAware Transoceanic
09:34PM 23.1701 -57.3553 49° Northeast 517 595 37,000  Level FlightAware Transoceanic
09:35PM 23.2822 -57.2132 49° Northeast 507 583 37,000  Level FlightAware Transoceanic
09:36PM 23.3734 -57.0981 49° Northeast 507 583 37,000  Level FlightAware Transoceanic
09:37PM 23.4645 -56.9830 49° Northeast 507 583 37,000  Level FlightAware Transoceanic
09:38PM 23.5555 -56.8676 49° Northeast 507 583 37,000  Level FlightAware Transoceanic
09:39PM 23.6465 -56.7521 49° Northeast 507 583 37,000  Level FlightAware Transoceanic
09:40PM 23.7373 -56.6365 49° Northeast 507 583 37,000  Level FlightAware Transoceanic
09:41PM 23.8281 -56.5207 49° Northeast 507 583 37,000  Level FlightAware Transoceanic
09:42PM 23.9188 -56.4047 49° Northeast 507 583 37,000  Level FlightAware Transoceanic
09:43PM 24.0094 -56.2885 50° Northeast 507 583 37,000  Level FlightAware Transoceanic
09:43PM 23.9833 -56.3167 49° Northeast 490 564 37,000  Level New York Oceanic (ODAPS)
09:44PM 24.0999 -56.1722 50° Northeast 507 583 37,000  Level FlightAware Transoceanic
09:45PM 24.1903 -56.0558 50° Northeast 507 583 37,000  Level FlightAware Transoceanic
09:46PM 24.2806 -55.9391 50° Northeast 507 583 37,000  Level FlightAware Transoceanic
09:47PM 24.3709 -55.8223 50° Northeast 507 583 37,000  Level FlightAware Transoceanic
09:48PM 24.4610 -55.7054 50° Northeast 507 583 37,000  Level FlightAware Transoceanic
09:49PM 24.4931 -55.6610 50° Northeast 490 564 37,000  Level FlightAware Transoceanic
09:50PM 24.5778 -55.5512 50° Northeast 490 564 37,000  Level FlightAware Transoceanic
09:51PM 24.6624 -55.4413 50° Northeast 490 564 37,000  Level FlightAware Transoceanic
09:52PM 24.7469 -55.3312 50° Northeast 490 564 37,000  Level FlightAware Transoceanic
09:53PM 24.8314 -55.2209 50° Northeast 490 564 37,000  Level FlightAware Transoceanic
09:54PM 24.9157 -55.1105 50° Northeast 490 564 37,000  Level FlightAware Transoceanic
09:54PM 25.0000 -55.0000 47° Northeast 497 572 37,000  Level New York Oceanic (ODAPS)
09:55PM 25.0000 -55.0000 47° Northeast 490 564 37,000  Level FlightAware Transoceanic
09:56PM 25.0949 -54.8876 47° Northeast 490 564 37,000  Level FlightAware Transoceanic
09:57PM 25.1898 -54.7751 47° Northeast 490 564 37,000  Level FlightAware Transoceanic
09:57PM 25.2500 -54.7167 47° Northeast 498 573 37,000  Level New York Oceanic (ODAPS)
09:58PM 25.2846 -54.6624 47° Northeast 490 564 37,000  Level FlightAware Transoceanic
09:59PM 25.3793 -54.5495 47° Northeast 490 564 37,000  Level FlightAware Transoceanic
10:00PM 25.4739 -54.4364 47° Northeast 490 564 37,000  Level FlightAware Transoceanic
10:01PM 25.5684 -54.3232 47° Northeast 497 572 37,000  Level FlightAware Transoceanic
10:02PM 25.6629 -54.2098 47° Northeast 497 572 37,000  Level FlightAware Transoceanic
10:03PM 25.8084 -54.0458 47° Northeast 498 573 37,000  Level FlightAware Transoceanic
10:04PM 25.9011 -53.9333 48° Northeast 498 573 37,000  Level FlightAware Transoceanic
10:05PM 25.9938 -53.8207 48° Northeast 498 573 37,000  Level FlightAware Transoceanic
10:06PM 26.0864 -53.7080 48° Northeast 498 573 37,000  Level FlightAware Transoceanic
10:07PM 26.1789 -53.5950 48° Northeast 498 573 37,000  Level FlightAware Transoceanic
10:08PM 26.2713 -53.4818 48° Northeast 498 573 37,000  Level FlightAware Transoceanic
10:09PM 26.3636 -53.3685 48° Northeast 498 573 37,000  Level FlightAware Transoceanic
10:10PM 26.4559 -53.2550 48° Northeast 498 573 37,000  Level FlightAware Transoceanic
10:11PM 26.5480 -53.1413 48° Northeast 498 573 37,000  Level FlightAware Transoceanic
10:12PM 26.6401 -53.0275 48° Northeast 498 573 37,000  Level FlightAware Transoceanic
10:13PM 26.7320 -52.9134 48° Northeast 498 573 37,000  Level FlightAware Transoceanic
10:14PM 26.8239 -52.7992 48° Northeast 498 573 37,000  Level FlightAware Transoceanic
10:15PM 26.9157 -52.6848 48° Northeast 498 573 37,000  Level FlightAware Transoceanic
10:16PM 27.0073 -52.5702 48° Northeast 498 573 37,000  Level FlightAware Transoceanic
10:17PM 27.0989 -52.4554 48° Northeast 498 573 37,000  Level FlightAware Transoceanic
10:18PM 27.1904 -52.3404 48° Northeast 498 573 37,000  Level FlightAware Transoceanic
10:19PM 27.2818 -52.2252 48° Northeast 498 573 37,000  Level FlightAware Transoceanic
10:20PM 27.3732 -52.1099 48° Northeast 498 573 37,000  Level FlightAware Transoceanic
10:21PM 27.4644 -51.9943 48° Northeast 498 573 37,000  Level FlightAware Transoceanic
10:22PM 27.5555 -51.8786 48° Northeast 498 573 37,000  Level FlightAware Transoceanic
10:23PM 27.6465 -51.7626 48° Northeast 498 573 37,000  Level FlightAware Transoceanic
10:24PM 27.7374 -51.6465 49° Northeast 498 573 37,000  Level FlightAware Transoceanic
10:25PM 27.8283 -51.5302 49° Northeast 498 573 37,000  Level FlightAware Transoceanic
10:25PM 27.8500 -51.5000 49° Northeast 502 578 37,000  Level New York Oceanic (ODAPS)
10:26PM 27.9190 -51.4137 49° Northeast 498 573 37,000  Level FlightAware Transoceanic
10:27PM 28.0096 -51.2970 49° Northeast 498 573 37,000  Level FlightAware Transoceanic
10:28PM 28.1002 -51.1801 49° Northeast 498 573 37,000  Level FlightAware Transoceanic
10:29PM 28.1906 -51.0630 49° Northeast 498 573 37,000  Level FlightAware Transoceanic
10:30PM 28.2810 -50.9457 49° Northeast 498 573 37,000  Level FlightAware Transoceanic
10:31PM 28.4270 -50.7541 49° Northeast 502 578 37,000  Level FlightAware Transoceanic
10:32PM 28.5228 -50.6290 49° Northeast 502 578 37,000  Level FlightAware Transoceanic
10:33PM 28.6185 -50.5036 49° Northeast 502 578 37,000  Level FlightAware Transoceanic
10:34PM 28.7141 -50.3781 49° Northeast 502 578 37,000  Level FlightAware Transoceanic
10:35PM 28.8095 -50.2523 49° Northeast 502 578 37,000  Level FlightAware Transoceanic
10:36PM 28.9048 -50.1263 49° Northeast 502 578 37,000  Level FlightAware Transoceanic
10:37PM 29.0000 -50.0000 54° Northeast 502 578 37,000  Level FlightAware Transoceanic
10:37PM 29.0000 -50.0000 54° Northeast 509 586 37,000  Level New York Oceanic (ODAPS)
10:38PM 29.0835 -49.8689 54° Northeast 502 578 37,000  Level FlightAware Transoceanic
10:38PM 29.1333 -49.8000 54° Northeast 508 585 37,000  Level New York Oceanic (ODAPS)
10:39PM 29.1669 -49.7375 54° Northeast 502 578 37,000  Level FlightAware Transoceanic
10:40PM 29.2502 -49.6059 54° Northeast 502 578 37,000  Level FlightAware Transoceanic
10:41PM 29.3333 -49.4741 54° Northeast 502 578 37,000  Level FlightAware Transoceanic
10:42PM 29.4163 -49.3421 54° Northeast 502 578 37,000  Level FlightAware Transoceanic
10:43PM 29.4992 -49.2099 54° Northeast 509 586 37,000  Level FlightAware Transoceanic
10:44PM 29.5819 -49.0774 54° Northeast 509 586 37,000  Level FlightAware Transoceanic
10:45PM 29.6370 -48.9971 54° Northeast 508 585 37,000  Level FlightAware Transoceanic
10:46PM 29.7205 -48.8625 55° Northeast 508 585 37,000  Level FlightAware Transoceanic
10:47PM 29.8039 -48.7276 55° Northeast 508 585 37,000  Level FlightAware Transoceanic
10:48PM 29.8871 -48.5926 55° Northeast 508 585 37,000  Level FlightAware Transoceanic
10:49PM 29.9701 -48.4573 55° Northeast 508 585 37,000  Level FlightAware Transoceanic
10:50PM 30.0531 -48.3218 55° Northeast 508 585 37,000  Level FlightAware Transoceanic
10:51PM 30.1359 -48.1861 55° Northeast 508 585 37,000  Level FlightAware Transoceanic
10:52PM 30.2185 -48.0501 55° Northeast 508 585 37,000  Level FlightAware Transoceanic
10:53PM 30.3010 -47.9139 55° Northeast 508 585 37,000  Level FlightAware Transoceanic
10:54PM 30.3834 -47.7775 55° Northeast 508 585 37,000  Level FlightAware Transoceanic
10:55PM 30.4656 -47.6409 55° Northeast 508 585 37,000  Level FlightAware Transoceanic
10:56PM 30.5477 -47.5040 55° Northeast 508 585 37,000  Level FlightAware Transoceanic
10:57PM 30.6296 -47.3669 55° Northeast 508 585 37,000  Level FlightAware Transoceanic
10:58PM 30.7114 -47.2296 55° Northeast 508 585 37,000  Level FlightAware Transoceanic
10:59PM 30.7931 -47.0920 55° Northeast 508 585 37,000  Level FlightAware Transoceanic
11:00PM 30.8746 -46.9542 55° Northeast 508 585 37,000  Level FlightAware Transoceanic
11:01PM 30.9559 -46.8162 56° Northeast 508 585 37,000  Level FlightAware Transoceanic
11:02PM 31.0372 -46.6779 56° Northeast 508 585 37,000  Level FlightAware Transoceanic
11:03PM 31.1182 -46.5394 56° Northeast 508 585 37,000  Level FlightAware Transoceanic
11:04PM 31.1992 -46.4006 56° Northeast 508 585 37,000  Level FlightAware Transoceanic
11:05PM 31.2799 -46.2617 56° Northeast 508 585 37,000  Level FlightAware Transoceanic
11:06PM 31.3605 -46.1224 56° Northeast 508 585 37,000  Level FlightAware Transoceanic
11:06PM 31.4000 -46.0500 56° Northeast 500 575 37,000  Level New York Oceanic (ODAPS)
11:07PM 31.4410 -45.9830 56° Northeast 508 585 37,000  Level FlightAware Transoceanic
11:08PM 31.5213 -45.8433 56° Northeast 508 585 37,000  Level FlightAware Transoceanic
11:09PM 31.6015 -45.7033 56° Northeast 508 585 37,000  Level FlightAware Transoceanic
11:10PM 31.6815 -45.5631 56° Northeast 508 585 37,000  Level FlightAware Transoceanic
11:11PM 31.7614 -45.4227 56° Northeast 508 585 37,000  Level FlightAware Transoceanic
11:12PM 31.8508 -45.2638 56° Northeast 500 575 37,000  Level FlightAware Transoceanic
11:13PM 31.9255 -45.1320 56° Northeast 500 575 37,000  Level FlightAware Transoceanic
11:14PM 32.0000 -45.0000 53° Northeast 500 575 37,000  Level FlightAware Transoceanic
11:14PM 32.0000 -45.0000 53° Northeast 502 578 37,000  Level New York Oceanic (ODAPS)
11:15PM 32.0836 -44.8693 53° Northeast 500 575 37,000  Level FlightAware Transoceanic
11:16PM 32.1672 -44.7384 53° Northeast 500 575 37,000  Level FlightAware Transoceanic
11:17PM 32.2505 -44.6073 53° Northeast 500 575 37,000  Level FlightAware Transoceanic
11:18PM 32.3338 -44.4759 53° Northeast 500 575 37,000  Level FlightAware Transoceanic
11:19PM 32.4169 -44.3443 53° Northeast 500 575 37,000  Level FlightAware Transoceanic
11:20PM 32.4999 -44.2124 53° Northeast 502 578 37,000  Level FlightAware Transoceanic
11:20PM 32.5167 -44.1667 53° Northeast 496 571 37,000  Level New York Oceanic (ODAPS)
11:21PM 32.5827 -44.0803 53° Northeast 502 578 37,000  Level FlightAware Transoceanic
11:22PM 32.6654 -43.9480 53° Northeast 502 578 37,000  Level FlightAware Transoceanic
11:23PM 32.7479 -43.8154 54° Northeast 502 578 37,000  Level FlightAware Transoceanic
11:24PM 32.8303 -43.6825 54° Northeast 502 578 37,000  Level FlightAware Transoceanic
11:25PM 32.9126 -43.5495 54° Northeast 502 578 37,000  Level FlightAware Transoceanic
11:26PM 33.0081 -43.3789 54° Northeast 496 571 37,000  Level FlightAware Transoceanic
11:27PM 33.0895 -43.2467 54° Northeast 496 571 37,000  Level FlightAware Transoceanic
11:28PM 33.1708 -43.1143 54° Northeast 496 571 37,000  Level FlightAware Transoceanic
11:29PM 33.2519 -42.9817 54° Northeast 496 571 37,000  Level FlightAware Transoceanic
11:30PM 33.3329 -42.8488 54° Northeast 496 571 37,000  Level FlightAware Transoceanic
11:31PM 33.4138 -42.7157 54° Northeast 496 571 37,000  Level FlightAware Transoceanic
11:32PM 33.4945 -42.5823 54° Northeast 496 571 37,000  Level FlightAware Transoceanic
11:33PM 33.5750 -42.4487 54° Northeast 496 571 37,000  Level FlightAware Transoceanic
11:34PM 33.6555 -42.3148 54° Northeast 496 571 37,000  Level FlightAware Transoceanic
11:34PM 33.6500 -42.3333 54° Northeast 497 572 37,000  Level New York Oceanic (ODAPS)
11:35PM 33.7357 -42.1807 54° Northeast 496 571 37,000  Level FlightAware Transoceanic
11:36PM 33.8159 -42.0463 54° Northeast 496 571 37,000  Level FlightAware Transoceanic
11:37PM 33.8959 -41.9117 54° Northeast 496 571 37,000  Level FlightAware Transoceanic
11:38PM 33.9757 -41.7768 55° Northeast 496 571 37,000  Level FlightAware Transoceanic
11:39PM 34.0554 -41.6417 55° Northeast 496 571 37,000  Level FlightAware Transoceanic
11:40PM 34.1315 -41.5184 55° Northeast 497 572 37,000  Level FlightAware Transoceanic
11:41PM 34.2112 -41.3816 55° Northeast 497 572 37,000  Level FlightAware Transoceanic
11:42PM 34.2908 -41.2446 55° Northeast 497 572 37,000  Level FlightAware Transoceanic
11:43PM 34.3702 -41.1074 55° Northeast 497 572 37,000  Level FlightAware Transoceanic
11:44PM 34.4495 -40.9699 55° Northeast 497 572 37,000  Level FlightAware Transoceanic
11:45PM 34.5286 -40.8321 55° Northeast 497 572 37,000  Level FlightAware Transoceanic
11:46PM 34.6076 -40.6941 55° Northeast 497 572 37,000  Level FlightAware Transoceanic
11:47PM 34.6864 -40.5558 55° Northeast 497 572 37,000  Level FlightAware Transoceanic
11:48PM 34.7650 -40.4173 55° Northeast 497 572 37,000  Level FlightAware Transoceanic
11:48PM 34.7667 -40.4167 56° Northeast 481 554 37,000  Level New York Oceanic (ODAPS)
11:49PM 34.8435 -40.2784 55° Northeast 497 572 37,000  Level FlightAware Transoceanic
11:50PM 34.9218 -40.1394 56° Northeast 497 572 37,000  Level FlightAware Transoceanic
11:51PM 35.0000 -40.0000 45° Northeast 497 572 37,000  Level FlightAware Transoceanic
11:52PM 35.0960 -39.8820 45° Northeast 497 572 37,000  Level FlightAware Transoceanic
11:53PM 35.1918 -39.7637 45° Northeast 497 572 37,000  Level FlightAware Transoceanic
11:54PM 35.2876 -39.6451 45° Northeast 481 554 37,000  Level FlightAware Transoceanic
11:55PM 35.3832 -39.5262 45° Northeast 481 554 37,000  Level FlightAware Transoceanic
11:56PM 35.4787 -39.4071 45° Northeast 481 554 37,000  Level FlightAware Transoceanic
11:57PM 35.5742 -39.2877 46° Northeast 481 554 37,000  Level FlightAware Transoceanic
11:58PM 35.6694 -39.1680 46° Northeast 481 554 37,000  Level FlightAware Transoceanic
11:59PM 35.7646 -39.0480 46° Northeast 481 554 37,000  Level FlightAware Transoceanic
12:00AM 35.8596 -38.9277 46° Northeast 481 554 37,000  Level FlightAware Transoceanic
12:01AM 35.9546 -38.8072 46° Northeast 481 554 37,000  Level FlightAware Transoceanic
12:02AM 36.0494 -38.6863 46° Northeast 481 554 37,000  Level FlightAware Transoceanic
12:03AM 36.1440 -38.5651 46° Northeast 481 554 37,000  Level FlightAware Transoceanic
12:04AM 36.2386 -38.4437 46° Northeast 481 554 37,000  Level FlightAware Transoceanic
12:05AM 36.3330 -38.3220 46° Northeast 481 554 37,000  Level FlightAware Transoceanic
12:06AM 36.4273 -38.1999 46° Northeast 481 554 37,000  Level FlightAware Transoceanic
12:07AM 36.5215 -38.0776 46° Northeast 481 554 37,000  Level FlightAware Transoceanic
12:08AM 36.6156 -37.9550 46° Northeast 481 554 37,000  Level FlightAware Transoceanic
12:09AM 36.7095 -37.8321 46° Northeast 481 554 37,000  Level FlightAware Transoceanic
12:10AM 36.8033 -37.7088 46° Northeast 481 554 37,000  Level FlightAware Transoceanic
12:11AM 36.8970 -37.5853 47° Northeast 481 554 37,000  Level FlightAware Transoceanic
12:12AM 36.9906 -37.4615 47° Northeast 481 554 37,000  Level FlightAware Transoceanic
12:13AM 37.0840 -37.3373 47° Northeast 481 554 37,000  Level FlightAware Transoceanic
12:14AM 37.1773 -37.2129 47° Northeast 481 554 37,000  Level FlightAware Transoceanic
12:15AM 37.2705 -37.0882 47° Northeast 481 554 37,000  Level FlightAware Transoceanic
12:16AM 37.3635 -36.9631 47° Northeast 481 554 37,000  Level FlightAware Transoceanic
12:17AM 37.4564 -36.8377 47° Northeast 481 554 37,000  Level FlightAware Transoceanic
12:18AM 37.5492 -36.7120 47° Northeast 481 554 37,000  Level FlightAware Transoceanic
12:19AM 37.6418 -36.5860 47° Northeast 481 554 37,000  Level FlightAware Transoceanic
12:20AM 37.7343 -36.4597 47° Northeast 481 554 37,000  Level FlightAware Transoceanic
12:21AM 37.8267 -36.3331 47° Northeast 481 554 37,000  Level FlightAware Transoceanic
12:22AM 37.9189 -36.2062 47° Northeast 481 554 37,000  Level FlightAware Transoceanic
12:23AM 38.0110 -36.0789 47° Northeast 481 554 37,000  Level FlightAware Transoceanic
12:24AM 38.1030 -35.9513 48° Northeast 481 554 37,000  Level FlightAware Transoceanic
12:25AM 38.1948 -35.8234 48° Northeast 481 554 37,000  Level FlightAware Transoceanic
12:26AM 38.2864 -35.6952 48° Northeast 481 554 37,000  Level FlightAware Transoceanic
12:27AM 38.3780 -35.5667 48° Northeast 481 554 37,000  Level FlightAware Transoceanic
12:28AM 38.4694 -35.4378 48° Northeast 481 554 37,000  Level FlightAware Transoceanic
12:29AM 38.5606 -35.3086 48° Northeast 481 554 37,000  Level FlightAware Transoceanic
12:30AM 38.6517 -35.1791 48° Northeast 481 554 37,000  Level FlightAware Transoceanic
12:31AM 38.7427 -35.0492 48° Northeast 481 554 37,000  Level FlightAware Transoceanic
12:32AM 38.8335 -34.9190 48° Northeast 481 554 37,000  Level FlightAware Transoceanic
12:33AM 38.9242 -34.7885 48° Northeast 481 554 37,000  Level FlightAware Transoceanic
12:34AM 39.0148 -34.6576 48° Northeast 481 554 37,000  Level FlightAware Transoceanic
12:35AM 39.1052 -34.5265 48° Northeast 481 554 37,000  Level FlightAware Transoceanic
12:36AM 39.1954 -34.3949 49° Northeast 481 554 37,000  Level FlightAware Transoceanic
12:37AM 39.2855 -34.2631 49° Northeast 481 554 37,000  Level FlightAware Transoceanic
12:38AM 39.3754 -34.1309 49° Northeast 481 554 37,000  Level FlightAware Transoceanic
12:39AM 39.4652 -33.9983 49° Northeast 481 554 37,000  Level FlightAware Transoceanic
12:40AM 39.5549 -33.8654 49° Northeast 481 554 37,000  Level FlightAware Transoceanic
12:41AM 39.6444 -33.7322 49° Northeast 481 554 37,000  Level FlightAware Transoceanic
12:42AM 39.7337 -33.5986 49° Northeast 481 554 37,000  Level FlightAware Transoceanic
12:43AM 39.8229 -33.4647 49° Northeast 481 554 37,000  Level FlightAware Transoceanic
12:44AM 39.9119 -33.3304 49° Northeast 481 554 37,000  Level FlightAware Transoceanic
12:45AM 40.0008 -33.1958 49° Northeast 481 554 37,000  Level FlightAware Transoceanic
12:46AM 40.0895 -33.0608 49° Northeast 481 554 37,000  Level FlightAware Transoceanic
12:47AM 40.1781 -32.9255 49° Northeast 481 554 37,000  Level FlightAware Transoceanic
12:48AM 40.2665 -32.7898 50° Northeast 481 554 37,000  Level FlightAware Transoceanic
12:49AM 40.3547 -32.6538 50° Northeast 481 554 37,000  Level FlightAware Transoceanic
12:50AM 40.4428 -32.5174 50° Northeast 481 554 37,000  Level FlightAware Transoceanic
12:51AM 40.5308 -32.3807 50° Northeast 481 554 37,000  Level FlightAware Transoceanic
12:52AM 40.6185 -32.2436 50° Northeast 481 554 37,000  Level FlightAware Transoceanic
12:53AM 40.7061 -32.1061 50° Northeast 481 554 37,000  Level FlightAware Transoceanic
12:54AM 40.7936 -31.9683 50° Northeast 481 554 37,000  Level FlightAware Transoceanic
12:55AM 40.8808 -31.8301 50° Northeast 481 554 37,000  Level FlightAware Transoceanic
12:56AM 40.9679 -31.6916 50° Northeast 481 554 37,000  Level FlightAware Transoceanic
12:57AM 41.0549 -31.5527 50° Northeast 481 554 37,000  Level FlightAware Transoceanic
12:58AM 41.1417 -31.4134 50° Northeast 481 554 37,000  Level FlightAware Transoceanic
12:59AM 41.2283 -31.2737 51° Northeast 481 554 37,000  Level FlightAware Transoceanic
01:00AM 41.3147 -31.1337 51° Northeast 481 554 37,000  Level FlightAware Transoceanic
01:01AM 41.4010 -30.9933 51° Northeast 481 554 37,000  Level FlightAware Transoceanic
01:02AM 41.4871 -30.8525 51° Northeast 481 554 37,000  Level FlightAware Transoceanic
01:03AM 41.5730 -30.7114 51° Northeast 481 554 37,000  Level FlightAware Transoceanic
01:04AM 41.6587 -30.5699 51° Northeast 481 554 37,000  Level FlightAware Transoceanic
01:05AM 41.7443 -30.4280 51° Northeast 481 554 37,000  Level FlightAware Transoceanic
01:06AM 41.8297 -30.2857 51° Northeast 481 554 37,000  Level FlightAware Transoceanic
01:07AM 41.9150 -30.1430 51° Northeast 481 554 37,000  Level FlightAware Transoceanic
01:08AM 41.9984 -30.0026 51° Northeast  Level FlightAware Approximate
01:09AM 42.0817 -29.8619 51° Northeast  Level FlightAware Approximate
01:10AM 42.0798 -29.8641 52° Northeast  Level FlightAware Approximate
01:11AM 42.1626 -29.7225 52° Northeast  Level FlightAware Approximate
01:12AM 42.2451 -29.5806 52° Northeast  Level FlightAware Approximate
01:13AM 42.3275 -29.4382 52° Northeast  Level FlightAware Approximate
01:14AM 42.4097 -29.2956 52° Northeast  Level FlightAware Approximate
01:15AM 42.4918 -29.1525 52° Northeast  Level FlightAware Approximate
01:16AM 42.5736 -29.0091 52° Northeast  Level FlightAware Approximate
01:17AM 42.6553 -28.8652 52° Northeast  Level FlightAware Approximate
01:18AM 42.7368 -28.7211 52° Northeast  Level FlightAware Approximate
01:19AM 42.8181 -28.5765 52° Northeast  Level FlightAware Approximate
01:20AM 42.8993 -28.4315 53° Northeast  Level FlightAware Approximate
01:21AM 42.9802 -28.2862 53° Northeast  Level FlightAware Approximate
01:22AM 43.0610 -28.1405 53° Northeast  Level FlightAware Approximate
01:23AM 43.1415 -27.9944 53° Northeast  Level FlightAware Approximate
01:24AM 43.2220 -27.8479 53° Northeast  Level FlightAware Approximate
01:25AM 43.3022 -27.7010 53° Northeast  Level FlightAware Approximate
01:26AM 43.3822 -27.5538 53° Northeast  Level FlightAware Approximate
01:27AM 43.4620 -27.4061 53° Northeast  Level FlightAware Approximate
01:28AM 43.5416 -27.2581 53° Northeast  Level FlightAware Approximate
01:29AM 43.6211 -27.1097 53° Northeast  Level FlightAware Approximate
01:30AM 43.7004 -26.9608 54° Northeast  Level FlightAware Approximate
01:31AM 43.7794 -26.8116 54° Northeast  Level FlightAware Approximate
01:32AM 43.8583 -26.6620 54° Northeast  Level FlightAware Approximate
01:33AM 43.9370 -26.5120 54° Northeast  Level FlightAware Approximate
01:34AM 44.0154 -26.3616 54° Northeast  Level FlightAware Approximate
01:35AM 44.0937 -26.2108 54° Northeast  Level FlightAware Approximate
01:36AM 44.1718 -26.0596 54° Northeast  Level FlightAware Approximate
01:37AM 44.2497 -25.9080 54° Northeast  Level FlightAware Approximate
01:38AM 44.3274 -25.7560 54° Northeast  Level FlightAware Approximate
01:39AM 44.4048 -25.6036 55° Northeast  Level FlightAware Approximate
01:40AM 44.4821 -25.4508 55° Northeast  Level FlightAware Approximate
01:41AM 44.5592 -25.2976 55° Northeast  Level FlightAware Approximate
01:42AM 44.6360 -25.1440 55° Northeast  Level FlightAware Approximate
01:43AM 44.7127 -24.9900 55° Northeast  Level FlightAware Approximate
01:44AM 44.7891 -24.8355 55° Northeast  Level FlightAware Approximate
01:45AM 44.8654 -24.6807 55° Northeast  Level FlightAware Approximate
01:46AM 44.9414 -24.5254 55° Northeast  Level FlightAware Approximate
01:47AM 45.0172 -24.3698 55° Northeast  Level FlightAware Approximate
01:48AM 45.0928 -24.2137 56° Northeast  Level FlightAware Approximate
01:49AM 45.1682 -24.0572 56° Northeast  Level FlightAware Approximate
01:50AM 45.2434 -23.9003 56° Northeast  Level FlightAware Approximate
01:51AM 45.3184 -23.7430 56° Northeast  Level FlightAware Approximate
01:52AM 45.3931 -23.5853 56° Northeast  Level FlightAware Approximate
01:53AM 45.4679 -23.4273 56° Northeast  Level FlightAware Approximate
01:54AM 45.5427 -23.2693 56° Northeast  Level FlightAware Approximate
01:55AM 45.6174 -23.1108 56° Northeast  Level FlightAware Approximate
01:56AM 45.6918 -22.9519 56° Northeast  Level FlightAware Approximate
01:57AM 45.7659 -22.7926 56° Northeast  Level FlightAware Approximate
01:58AM 45.8399 -22.6328 56° Northeast  Level FlightAware Approximate
01:59AM 45.9137 -22.4727 56° Northeast  Level FlightAware Approximate
02:00AM 45.9872 -22.3121 57° Northeast  Level FlightAware Approximate
02:01AM 46.0605 -22.1511 57° Northeast  Level FlightAware Approximate
02:02AM 46.1335 -21.9896 57° Northeast  Level FlightAware Approximate
02:03AM 46.2064 -21.8277 57° Northeast  Level FlightAware Approximate
02:04AM 46.2790 -21.6654 57° Northeast  Level FlightAware Approximate
02:05AM 46.3514 -21.5027 57° Northeast  Level FlightAware Approximate
02:06AM 46.4235 -21.3395 57° Northeast  Level FlightAware Approximate
02:07AM 46.4954 -21.1759 57° Northeast  Level FlightAware Approximate
02:08AM 46.5671 -21.0119 58° Northeast  Level FlightAware Approximate
02:09AM 46.6385 -20.8474 58° Northeast  Level FlightAware Approximate
02:10AM 46.7098 -20.6825 58° Northeast  Level FlightAware Approximate
02:11AM 46.7807 -20.5172 58° Northeast  Level FlightAware Approximate
02:12AM 46.8515 -20.3514 58° Northeast  Level FlightAware Approximate
02:13AM 46.9220 -20.1852 58° Northeast  Level FlightAware Approximate
02:14AM 46.9922 -20.0185 58° Northeast  Level FlightAware Approximate
02:15AM 47.0368 -19.8343 72° East  Level FlightAware Approximate
02:16AM 47.0778 -19.6475 72° East  Level FlightAware Approximate
02:17AM 47.1186 -19.4605 72° East  Level FlightAware Approximate
02:18AM 47.1591 -19.2732 72° East  Level FlightAware Approximate
02:19AM 47.1992 -19.0856 72° East  Level FlightAware Approximate
02:20AM 47.2391 -18.8977 73° East  Level FlightAware Approximate
02:21AM 47.2785 -18.7094 73° East  Level FlightAware Approximate
02:22AM 47.3171 -18.5207 73° East  Level FlightAware Approximate
02:23AM 47.3555 -18.3318 73° East  Level FlightAware Approximate
02:24AM 47.3935 -18.1425 73° East  Level FlightAware Approximate
02:25AM 47.4312 -17.9530 74° East  Level FlightAware Approximate
02:26AM 47.4686 -17.7632 74° East  Level FlightAware Approximate
02:27AM 47.5057 -17.5731 74° East  Level FlightAware Approximate
02:28AM 47.5439 -17.3834 73° East  Level FlightAware Approximate
02:29AM 47.5823 -17.1936 73° East  Level FlightAware Approximate
02:30AM 47.6204 -17.0036 73° East  Level FlightAware Approximate
02:31AM 47.6582 -16.8133 74° East  Level FlightAware Approximate
02:32AM 47.6957 -16.6227 74° East  Level FlightAware Approximate
02:33AM 47.7329 -16.4318 74° East  Level FlightAware Approximate
02:34AM 47.7697 -16.2407 74° East  Level FlightAware Approximate
02:35AM 47.8063 -16.0493 74° East  Level FlightAware Approximate
02:36AM 47.8425 -15.8576 74° East  Level FlightAware Approximate
02:37AM 47.8784 -15.6657 74° East  Level FlightAware Approximate
02:38AM 47.9139 -15.4735 74° East  Level FlightAware Approximate
02:39AM 47.9492 -15.2810 75° East  Level FlightAware Approximate
02:40AM 47.9841 -15.0883 75° East  Level FlightAware Approximate
02:41AM 48.0288 -14.9005 67° East  Level FlightAware Approximate
02:42AM 48.0816 -14.7168 67° East  Level FlightAware Approximate
02:43AM 48.1341 -14.5326 67° East  Level FlightAware Approximate
02:44AM 48.1864 -14.3482 67° East  Level FlightAware Approximate
02:45AM 48.2383 -14.1633 67° East  Level FlightAware Approximate
02:46AM 48.2899 -13.9781 67° East  Level FlightAware Approximate
02:47AM 48.3413 -13.7924 67° East  Level FlightAware Approximate
02:48AM 48.3923 -13.6065 67° East  Level FlightAware Approximate
02:49AM 48.4431 -13.4201 68° East  Level FlightAware Approximate
02:50AM 48.4935 -13.2334 68° East  Level FlightAware Approximate
02:51AM 48.5436 -13.0463 68° East  Level FlightAware Approximate
02:52AM 48.5935 -12.8588 68° East  Level FlightAware Approximate
02:53AM 48.6430 -12.6710 68° East  Level FlightAware Approximate
02:54AM 48.6922 -12.4827 68° East  Level FlightAware Approximate
02:55AM 48.7412 -12.2942 68° East  Level FlightAware Approximate
02:56AM 48.7898 -12.1052 69° East  Level FlightAware Approximate
02:57AM 48.8656 -11.9490 35° Northeast  Level FlightAware Approximate
02:58AM 48.9749 -11.8320 35° Northeast  Level FlightAware Approximate
02:59AM 49.0748 -11.7030 68° East  Level FlightAware Approximate
03:00AM 49.1250 -11.5138 68° East  Level FlightAware Approximate
03:01AM 49.1750 -11.3242 68° East  Level FlightAware Approximate
03:02AM 49.2247 -11.1343 68° East  Level FlightAware Approximate
03:03AM 49.2740 -10.9439 68° East  Level FlightAware Approximate
03:04AM 49.3231 -10.7532 68° East  Level FlightAware Approximate
03:05AM 49.3718 -10.5621 69° East  Level FlightAware Approximate
03:06AM 49.4202 -10.3706 69° East  Level FlightAware Approximate
03:07AM 49.4683 -10.1788 69° East  Level FlightAware Approximate
03:07AM 49.3800 -9.9220 69° East 462 532 39,000  Level FlightAware
03:08AM 49.5161 -9.9866 69° East  Level FlightAware Approximate
03:08AM 49.4140 -9.7840 69° East 462 532 39,000  Level FlightAware
03:09AM 49.4480 -9.6470 69° East 464 534 39,000  Level FlightAware
03:09AM 49.4710 -9.5540 69° East 468 539 39,000  Level FlightAware
03:10AM 49.5150 -9.3870 68° East 469 540 39,000  Level FlightAware
03:11AM 49.5500 -9.2680 66° East 471 542 39,000  Level FlightAware
03:11AM 49.5860 -9.1420 66° East 469 540 39,000  Level FlightAware
03:12AM 49.6250 -9.0000 67° East 468 539 39,000 -1,500 Level FlightAware
03:12AM 49.6393 -8.9494 67° East 458 527 37,500 -2,700 Descending FlightAware UK
03:13AM 49.6547 -8.8944 67° East 458 527 37,500  Level FlightAware UK
03:13AM 49.6701 -8.8393 67° East 456 525 37,500 4,260 Level FlightAware UK
03:13AM 49.6710 -8.8370 67° East 469 540 39,000  Climbing FlightAware
03:13AM 49.6854 -8.7841 67° East 456 525 37,500 -2,760 Descending FlightAware UK
03:14AM 49.7009 -8.7287 67° East 458 527 37,500 3,000 Level FlightAware UK
03:14AM 49.7060 -8.7090 67° East 469 540 39,000  Climbing FlightAware
03:14AM 49.7265 -8.6359 67° East 460 529 37,500  Descending FlightAware UK
03:14AM 49.7320 -8.6160 67° East 470 541 39,000  Climbing FlightAware
03:14AM 49.7419 -8.5799 67° East 462 532 37,500 -5,040 Descending FlightAware UK
03:15AM 49.7521 -8.5426 67° East 462 532 37,500  Level FlightAware UK
03:15AM 49.7674 -8.4864 67° East 462 532 37,500 2,760 Level FlightAware UK
03:15AM 49.7780 -8.4470 67° East 476 548 39,000  Climbing FlightAware
03:15AM 49.7930 -8.3925 67° East 462 532 37,500 -2,700 Descending FlightAware UK
03:16AM 49.8083 -8.3361 67° East 462 532 37,500 3,060 Level FlightAware UK
03:16AM 49.8160 -8.3080 67° East 476 548 39,000  Climbing FlightAware
03:16AM 49.8341 -8.2419 67° East 464 534 37,500 -2,460 Descending FlightAware UK
03:16AM 49.8494 -8.1855 67° East 464 534 37,500 4,260 Level FlightAware UK
03:16AM 49.8500 -8.1830 67° East 475 547 39,000  Climbing FlightAware
03:17AM 49.8647 -8.1290 67° East 462 532 37,500 -2,760 Descending FlightAware UK
03:17AM 49.8800 -8.0719 67° East 462 532 37,500 3,000 Level FlightAware UK
03:17AM 49.8890 -8.0400 67° East 473 544 39,000  Climbing FlightAware
03:18AM 49.9052 -7.9780 67° East 460 529 37,500 -2,520 Descending FlightAware UK
03:18AM 49.9202 -7.9218 67° East 460 529 37,500 4,080 Level FlightAware UK
03:18AM 49.9230 -7.9130 67° East 473 544 39,000  Climbing FlightAware
03:18AM 49.9402 -7.8467 67° East 460 529 37,500 -2,400 Descending FlightAware UK
03:19AM 49.9552 -7.7903 68° East 460 529 37,500 4,500 Level FlightAware UK
03:19AM 49.9550 -7.7900 68° East 473 544 39,000  Climbing FlightAware
03:19AM 49.9703 -7.7340 68° East 460 529 37,500 -2,700 Descending FlightAware UK
03:19AM 49.9853 -7.6776 68° East 460 529 37,500 3,720 Level FlightAware UK
03:19AM 49.9880 -7.6650 68° East 474 545 39,000  Climbing FlightAware
03:20AM 50.0051 -7.6022 68° East 462 532 37,500 -2,520 Descending FlightAware UK
03:20AM 50.0200 -7.5455 68° East 460 529 37,500 3,300 Level FlightAware UK
03:20AM 50.0250 -7.5270 68° East 474 545 39,000  Climbing FlightAware
03:20AM 50.0397 -7.4700 68° East 460 529 37,500 -2,760 Descending FlightAware UK
03:21AM 50.0546 -7.4133 68° East 460 529 37,500 3,600 Level FlightAware UK
03:21AM 50.0590 -7.3980 68° East 473 544 39,000  Climbing FlightAware
03:21AM 50.0743 -7.3376 68° East 460 529 37,500 -2,580 Descending FlightAware UK
03:21AM 50.0891 -7.2809 68° East 462 532 37,500 3,180 Level FlightAware UK
03:21AM 50.0960 -7.2540 68° East 475 547 39,000  Climbing FlightAware
03:22AM 50.1139 -7.1862 68° East 460 529 37,500 -2,400 Descending FlightAware UK
03:22AM 50.1286 -7.1293 68° East 460 529 37,500 4,500 Level FlightAware UK
03:22AM 50.1280 -7.1300 68° East 473 544 39,000  Climbing FlightAware
03:22AM 50.1431 -7.0723 68° East 460 529 37,500 -2,700 Descending FlightAware UK
03:23AM 50.1577 -7.0155 68° East 460 529 37,500 3,720 Level FlightAware UK
03:23AM 50.1620 -7.0000 68° East 474 545 39,000  Climbing FlightAware
03:23AM 50.1773 -6.9389 68° East 458 527 37,500 -2,520 Descending FlightAware UK
03:23AM 50.1919 -6.8818 68° East 460 529 37,500 3,300 Level FlightAware UK
03:23AM 50.1970 -6.8620 68° East 475 547 39,000  Climbing FlightAware
03:24AM 50.2114 -6.8057 68° East 462 532 37,500 -2,760 Descending FlightAware UK
03:24AM 50.2259 -6.7485 68° East 462 532 37,500 3,600 Level FlightAware UK
03:24AM 50.2290 -6.7350 68° East 475 547 39,000  Climbing FlightAware
03:24AM 50.2452 -6.6720 68° East 462 532 37,500 -2,580 Descending FlightAware UK
03:25AM 50.2597 -6.6146 68° East 464 534 37,500 3,180 Level FlightAware UK
03:25AM 50.2650 -6.5930 68° East 476 548 39,000  Climbing FlightAware
03:25AM 50.2839 -6.5189 68° East 464 534 37,500 -2,400 Descending FlightAware UK
03:26AM 50.2982 -6.4614 69° East 464 534 37,500 4,500 Level FlightAware UK
03:26AM 50.2970 -6.4650 69° East 475 547 39,000  Climbing FlightAware
03:26AM 50.3126 -6.4039 69° East 464 534 37,500 -2,700 Descending FlightAware UK
03:26AM 50.3269 -6.3464 69° East 464 534 37,500 3,720 Level FlightAware UK
03:26AM 50.3300 -6.3350 69° East 475 547 39,000  Climbing FlightAware
03:27AM 50.3462 -6.2699 69° East 464 534 37,500 -2,520 Descending FlightAware UK
03:27AM 50.3607 -6.2124 69° East 464 534 37,500 3,300 Level FlightAware UK
03:27AM 50.3650 -6.1930 69° East 475 547 39,000  Climbing FlightAware
03:27AM 50.3796 -6.1356 69° East 464 534 37,500 -2,760 Descending FlightAware UK
03:28AM 50.3938 -6.0781 69° East 462 532 37,500 3,600 Level FlightAware UK
03:28AM 50.3960 -6.0670 69° East 474 545 39,000  Climbing FlightAware
03:28AM 50.4126 -6.0013 69° East 464 534 37,500 -2,580 Descending FlightAware UK
03:28AM 50.4267 -5.9436 69° East 466 536 37,500 3,180 Level FlightAware UK
03:28AM 50.4310 -5.9260 69° East 475 547 39,000  Climbing FlightAware
03:29AM 50.4502 -5.8467 69° East 464 534 37,500 -2,400 Descending FlightAware UK
03:29AM 50.4644 -5.7890 69° East 464 534 37,500 4,500 Level FlightAware UK
03:29AM 50.4650 -5.7870 69° East 475 547 39,000  Climbing FlightAware
03:29AM 50.4784 -5.7311 69° East 464 534 37,500 -2,700 Descending FlightAware UK
03:30AM 50.4923 -5.6732 69° East 464 534 37,500 3,720 Level FlightAware UK
03:30AM 50.4950 -5.6640 69° East 475 547 39,000  Climbing FlightAware
03:30AM 50.5108 -5.5960 69° East 462 532 37,500 -2,520 Descending FlightAware UK
03:30AM 50.5247 -5.5382 69° East 460 529 37,500 3,300 Level FlightAware UK
03:30AM 50.5290 -5.5190 69° East 475 547 39,000  Climbing FlightAware
03:31AM 50.5432 -5.4609 69° East 466 536 37,500 -2,760 Descending FlightAware UK
03:31AM 50.5571 -5.4029 69° East 464 534 37,500 3,600 Level FlightAware UK
03:31AM 50.5610 -5.3880 69° East 474 545 39,000  Climbing FlightAware
03:31AM 50.5756 -5.3254 69° East 462 532 37,500 -2,580 Descending FlightAware UK
03:32AM 50.5895 -5.2674 69° East 462 532 37,500 3,900 Level FlightAware UK
03:32AM 50.5910 -5.2630 69° East 473 544 39,000  Climbing FlightAware
03:32AM 50.6078 -5.1899 69° East 462 532 37,500 -2,460 Descending FlightAware UK
03:32AM 50.6214 -5.1319 70° East 462 532 37,500 3,420 Level FlightAware UK
03:33AM 50.6250 -5.1160 70° East 474 545 39,000  Climbing FlightAware
03:33AM 50.6396 -5.0545 70° East 462 532 37,500 -2,700 Descending FlightAware UK
03:33AM 50.6533 -4.9964 70° East 462 532 37,500 3,720 Level FlightAware UK
03:33AM 50.6560 -4.9840 70° East 475 547 39,000  Climbing FlightAware
03:34AM 50.6714 -4.9187 70° East 462 532 37,500 -2,160 Descending FlightAware UK
03:34AM 50.6895 -4.8410 70° East 462 532 37,500 3,300 Level FlightAware UK
03:34AM 50.6900 -4.8400 70° East 476 548 39,000 5,580 Climbing FlightAware
03:34AM 50.7016 -4.7895 70° East 476 548 39,000 -2,760 Level FlightAware ADS-B
03:35AM 50.7169 -4.7235 70° East 462 532 37,500  Descending FlightAware UK
03:35AM 50.7294 -4.6693 70° East 477 549 39,000  Climbing FlightAware ADS-B
03:35AM 50.7438 -4.6061 70° East 464 534 37,500  Descending FlightAware UK
03:35AM 50.7490 -4.5820 70° East 477 549 39,000  Climbing FlightAware
03:36AM 50.7663 -4.5081 70° East 462 532 37,500  Descending FlightAware UK
03:36AM 50.7840 -4.4310 70° East 477 549 39,000 2,340 Climbing FlightAware
03:36AM 50.7945 -4.3858 70° East 477 549 39,000 -3,240 Level FlightAware ADS-B
03:37AM 50.8068 -4.3316 70° East 460 529 37,500  Descending FlightAware UK
03:37AM 50.8150 -4.2960 70° East 476 548 39,000 2,460 Climbing FlightAware
03:37AM 50.8331 -4.2156 70° East 477 549 39,000 -2,100 Level FlightAware ADS-B
03:38AM 50.8512 -4.1343 70° East 460 529 37,500  Descending FlightAware UK
03:38AM 50.8593 -4.0991 70° East 479 551 39,000  Climbing FlightAware ADS-B
03:38AM 50.8733 -4.0355 70° East 462 532 37,500  Descending FlightAware UK
03:38AM 50.8780 -4.0140 70° East 482 555 39,000  Climbing FlightAware
03:39AM 50.9001 -3.9160 70° East 464 534 37,500  Descending FlightAware UK
03:39AM 50.9046 -3.8960 70° East 481 554 39,000  Climbing FlightAware ADS-B
03:39AM 50.9179 -3.8359 70° East 464 534 37,500 -2,520 Descending FlightAware UK
03:39AM 50.9314 -3.7760 70° East 462 532 37,500 2,460 Level FlightAware UK
03:40AM 50.9430 -3.7240 70° East 481 554 39,000  Climbing FlightAware
03:40AM 50.9577 -3.6559 70° East 462 532 37,500  Descending FlightAware UK
03:40AM 50.9720 -3.5900 70° East 481 554 39,000  Climbing FlightAware
03:41AM 50.9882 -3.5162 70° East 462 532 37,500  Descending FlightAware UK
03:41AM 51.0010 -3.4570 70° East 481 554 39,000  Climbing FlightAware
03:41AM 51.0228 -3.3566 70° East 462 532 37,500  Descending FlightAware UK
03:42AM 51.0320 -3.3130 70° East 482 555 39,000 2,280 Climbing FlightAware
03:42AM 51.0511 -3.2264 71° East 483 556 39,000 -2,460 Level FlightAware ADS-B
03:42AM 51.0621 -3.1759 71° East 462 532 37,500  Descending FlightAware UK
03:43AM 51.0722 -3.1283 71° East 483 556 39,000  Climbing FlightAware ADS-B
03:43AM 51.0880 -3.0545 71° East 460 529 37,500  Descending FlightAware UK
03:43AM 51.0955 -3.0198 71° East 484 557 39,000 2,040 Climbing FlightAware ADS-B
03:44AM 51.1195 -2.9073 71° East 484 557 39,000 -1,920 Level FlightAware ADS-B
03:44AM 51.1310 -2.8529 71° East 464 534 37,500  Descending FlightAware UK
03:44AM 51.1434 -2.7936 71° East 486 559 39,000  Climbing FlightAware ADS-B
03:45AM 51.1608 -2.7106 71° East 464 534 37,500  Descending FlightAware UK
03:45AM 51.1668 -2.6820 71° East 488 562 39,000  Climbing FlightAware ADS-B
03:45AM 51.1779 -2.6283 71° East 464 534 37,500  Descending FlightAware UK
03:45AM 51.1911 -2.5653 71° East 488 562 39,000  Climbing FlightAware ADS-B
03:46AM 51.2035 -2.5057 71° East 464 534 37,500  Descending FlightAware UK
03:46AM 51.2136 -2.4571 71° East 488 562 39,000  Climbing FlightAware ADS-B
03:46AM 51.2247 -2.4034 71° East 464 534 37,500  Descending FlightAware UK
03:46AM 51.2348 -2.3546 71° East 489 563 39,000  Climbing FlightAware ADS-B
03:47AM 51.2459 -2.3012 71° East 464 534 37,500  Descending FlightAware UK
03:47AM 51.2593 -2.2358 71° East 489 563 39,000 1,740 Climbing FlightAware ADS-B
03:47AM 51.2808 -2.1305 72° East 490 564 39,000  Level FlightAware ADS-B
03:48AM 51.3021 -2.0257 72° East 491 565 39,000 -1,980 Level FlightAware ADS-B
03:48AM 51.3133 -1.9706 72° East 466 536 37,500  Descending FlightAware UK
03:49AM 51.3244 -1.9155 72° East 492 566 39,000 1,920 Climbing FlightAware ADS-B
03:49AM 51.3453 -1.8113 72° East 490 564 39,000 -1,800 Level FlightAware ADS-B
03:49AM 51.3592 -1.7424 72° East 466 536 37,500  Descending FlightAware UK
03:50AM 51.3654 -1.7110 72° East 490 564 39,000  Climbing FlightAware ADS-B
03:50AM 51.3798 -1.6391 72° East 466 536 37,500  Descending FlightAware UK
03:50AM 51.3872 -1.6018 72° East 490 564 39,000  Climbing FlightAware ADS-B
03:50AM 51.4003 -1.5358 72° East 466 536 37,500  Descending FlightAware UK
03:51AM 51.4086 -1.4932 72° East 489 563 39,000 2,040 Climbing FlightAware ADS-B
03:51AM 51.4297 -1.3860 72° East 488 562 39,000  Level FlightAware ADS-B
03:52AM 51.4499 -1.2825 73° East 488 562 39,000  Level FlightAware ADS-B
03:52AM 51.4703 -1.1776 73° East 488 562 39,000 -1,740 Level FlightAware ADS-B
03:52AM 51.4851 -1.1008 73° East 464 534 37,500  Descending FlightAware UK
03:53AM 51.4905 -1.0731 73° East 489 563 39,000  Climbing FlightAware ADS-B
03:53AM 51.5011 -1.0180 73° East 464 534 37,500  Descending FlightAware UK
03:53AM 51.5112 -0.9663 73° East 489 563 39,000  Climbing FlightAware ADS-B
03:53AM 51.5253 -0.8929 73° East 464 534 37,500  Descending FlightAware UK
03:54AM 51.5313 -0.8606 73° East 489 563 39,000 2,160 Climbing FlightAware ADS-B
03:54AM 51.5520 -0.7519 73° East 490 564 39,000 -1,800 Level FlightAware ADS-B
03:54AM 51.5648 -0.6848 73° East 466 536 37,500  Descending FlightAware UK
03:55AM 51.5722 -0.6450 73° East 491 565 39,000 2,100 Climbing FlightAware ADS-B
03:55AM 51.5918 -0.5405 73° East 490 564 39,000 -1,860 Level FlightAware ADS-B
03:55AM 51.6041 -0.4754 73° East 464 534 37,500  Descending FlightAware UK
03:56AM 51.6110 -0.4379 73° East 490 564 39,000 2,100 Climbing FlightAware ADS-B
03:56AM 51.6313 -0.3288 73° East 490 564 39,000 -1,920 Level FlightAware ADS-B
03:56AM 51.6430 -0.2655 73° East 464 534 37,500  Descending FlightAware UK
03:57AM 51.6516 -0.2193 73° East 491 565 39,000  Climbing FlightAware ADS-B
03:57AM 51.6624 -0.1606 73° East 464 534 37,500  Descending FlightAware UK
03:57AM 51.6724 -0.1059 73° East 492 566 39,000  Climbing FlightAware ADS-B
03:58AM 51.6854 -0.0345 73° East 464 534 37,500  Descending FlightAware UK
03:58AM 51.6921 0.0018 73° East 493 567 39,000  Climbing FlightAware ADS-B
03:58AM 51.7047 0.0708 73° East 466 536 37,500  Descending FlightAware UK
03:58AM 51.7116 0.1090 73° East 494 568 39,000  Climbing FlightAware ADS-B
03:59AM 51.7278 0.1980 73° East 466 536 37,500  Descending FlightAware UK
03:59AM 51.7319 0.2216 73° East 492 566 39,000  Climbing FlightAware ADS-B
03:59AM 51.7430 0.2835 73° East 466 536 37,500  Descending FlightAware UK
03:59AM 51.7510 0.3275 73° East 492 566 39,000  Climbing FlightAware ADS-B
04:00AM 51.7620 0.3892 73° East 464 534 37,500  Descending FlightAware UK
04:00AM 51.7700 0.4341 73° East 492 566 39,000 2,040 Climbing FlightAware ADS-B
04:00AM 51.7886 0.5393 74° East 493 567 39,000 -1,920 Level FlightAware ADS-B
04:01AM 51.7996 0.6011 74° East 464 534 37,500  Descending FlightAware UK
04:01AM 51.8080 0.6493 74° East 494 568 39,000  Climbing FlightAware ADS-B
04:01AM 51.8219 0.7289 74° East 464 534 37,500  Descending FlightAware UK
04:01AM 51.8267 0.7564 74° East 494 568 39,000 1,860 Climbing FlightAware ADS-B
04:02AM 51.8456 0.8646 74° East 495 570 38,700 -2,760 Descending FlightAware ADS-B
04:02AM 51.8554 0.9211 74° East 466 536 36,900 -1,140 Descending FlightAware UK
04:02AM 51.8658 0.9811 74° East 493 567 38,100 -1,500 Climbing FlightAware ADS-B
04:03AM 51.8774 1.0489 74° East 466 536 36,000 -2,220 Descending FlightAware UK
04:03AM 51.8859 1.0980 74° East 492 566 36,900 -2,700 Climbing FlightAware ADS-B
04:03AM 51.8993 1.1761 74° East 464 534 34,400 -2,700 Descending FlightAware UK
04:04AM 51.9075 1.2248 74° East 491 565 35,300 -780 Climbing FlightAware ADS-B
04:04AM 51.9277 1.3432 74° East 491 565 33,800 -4,440 Descending FlightAware ADS-B
04:04AM 51.9388 1.4095 74° East 460 529 31,500 -2,220 Descending FlightAware UK
04:05AM 51.9455 1.4491 74° East 485 558 32,700 -1,800 Climbing FlightAware ADS-B
04:05AM 51.9564 1.5153 74° East 452 520 30,600 -2,040 Descending FlightAware UK
04:05AM 51.9651 1.5663 74° East 478 550 31,600 -2,040 Climbing FlightAware ADS-B
04:05AM 51.9770 1.6382 74° East 444 511 29,400 -1,740 Descending FlightAware UK
04:06AM 51.9840 1.6790 74° East 464 534 30,600 2,340 Climbing FlightAware
04:06AM 51.9895 1.7138 76° East 466 536 30,300 -5,400 Descending FlightAware ADS-B
04:06AM 52.0001 1.7784 76° East 434 499 28,100 -2,040 Descending FlightAware UK
04:06AM 52.0057 1.8124 76° East 453 521 29,300 -1,800 Climbing FlightAware ADS-B
04:07AM 52.0161 1.8761 76° East 424 488 27,200 -1,680 Descending FlightAware UK
04:07AM 52.0247 1.9284 76° East 444 511 28,300 -1,860 Climbing FlightAware ADS-B
04:07AM 52.0348 1.9915 76° East 416 479 26,100 -4,380 Descending FlightAware UK
04:08AM 52.0441 2.0485 75° East 412 474 25,600 1,740 Descending FlightAware UK
04:08AM 52.0480 2.0700 75° East 435 501 27,000 -1,620 Climbing FlightAware
04:08AM 52.0595 2.1434 75° East 420 483 24,800 -4,800 Descending FlightAware UK
04:08AM 52.0689 2.2015 75° East 414 476 24,200 3,660 Descending FlightAware UK
04:08AM 52.0660 2.1840 75° East 439 505 25,900 -2,040 Climbing FlightAware
04:09AM 52.0780 2.2588 75° East 410 472 23,600 -4,680 Descending FlightAware UK
04:09AM 52.0871 2.3156 75° East 408 470 23,100 1,260 Descending FlightAware UK
04:09AM 52.0920 2.3460 75° East 428 493 24,300 -2,040 Climbing FlightAware
04:09AM 52.1019 2.4081 75° East 404 465 22,100 -4,800 Descending FlightAware UK
04:10AM 52.1108 2.4632 75° East 400 460 21,600 2,040 Descending FlightAware UK
04:10AM 52.1130 2.4740 75° East 418 481 23,100 -1,500 Climbing FlightAware
04:10AM 52.1356 2.5666 75° East 388 447 20,700 -1,680 Descending FlightAware UK
04:11AM 52.1440 2.5940 75° East 406 467 22,000 -1,560 Climbing FlightAware
04:11AM 52.1605 2.6495 75° East 384 442 19,900 -4,740 Descending FlightAware UK
04:11AM 52.1746 2.6984 65° Northeast 384 442 19,400 2,460 Descending FlightAware UK
04:11AM 52.1750 2.7010 65° Northeast 401 461 20,900 -1,620 Climbing FlightAware
04:12AM 52.1979 2.7800 65° Northeast 376 433 18,600 -1,740 Descending FlightAware UK
04:12AM 52.2110 2.8280 65° Northeast 389 448 19,600 -1,680 Climbing FlightAware
04:12AM 52.2248 2.8758 65° Northeast 372 428 17,600 -1,500 Descending FlightAware UK
04:13AM 52.2400 2.9320 65° Northeast 379 436 18,600 -1,440 Climbing FlightAware
04:13AM 52.2555 2.9850 65° Northeast 364 419 16,600 -4,320 Descending FlightAware UK
04:13AM 52.2684 3.0312 65° Northeast 362 417 16,100 1,680 Descending FlightAware UK
04:13AM 52.2740 3.0510 65° Northeast 372 428 17,400 360 Climbing FlightAware
04:14AM 52.3030 3.1530 65° Northeast 370 426 16,400 -2,880 Descending FlightAware
04:15AM 52.3240 3.2295 65° Northeast 352 405 14,200 -1,380 Descending FlightAware UK
04:15AM 52.3290 3.2480 65° Northeast 362 417 15,500 -1,620 Climbing FlightAware
04:15AM 52.3443 3.3035 65° Northeast 348 400 13,400 -1,620 Descending FlightAware UK
04:15AM 52.3500 3.3250 65° Northeast 356 410 14,700 -840 Climbing FlightAware
04:16AM 52.3683 3.3905 65° Northeast 330 380 12,900 -600 Descending FlightAware UK
04:16AM 52.3760 3.4170 65° Northeast 333 383 14,300 -720 Climbing FlightAware
04:16AM 52.3911 3.4714 65° Northeast 308 354 12,500 -1,080 Descending FlightAware UK
04:17AM 52.4040 3.5200 65° Northeast 315 362 13,500 180 Climbing FlightAware
04:17AM 52.4270 3.6050 66° East 309 356 12,700 -1,200 Descending FlightAware
04:18AM 52.4500 3.6880 66° East 304 350 11,900 -2,700 Descending FlightAware
04:18AM 52.4683 3.7541 66° East 294 338 9,700 -1,500 Descending FlightAware UK
04:19AM 52.4770 3.7880 66° East 300 345 10,800 180 Climbing FlightAware
04:19AM 52.4990 3.8690 66° East 298 343 9,900 -2,820 Descending FlightAware
04:20AM 52.5125 3.9153 66° East 288 331 8,000 -1,020 Descending FlightAware UK
04:20AM 52.5160 3.9310 66° East 291 335 9,400 1,320 Climbing FlightAware
04:20AM 52.5210 3.9810 81° East 289 333 8,800 -1,200 Descending FlightAware
04:21AM 52.5090 4.0440 107° East 279 321 8,300 -1,200 Descending FlightAware
04:21AM 52.4930 4.1050 113° Southeast 279 321 7,600 -1,320 Descending FlightAware
04:22AM 52.4810 4.1510 113° Southeast 275 316 7,100 -1,200 Descending FlightAware
04:22AM 52.4670 4.2090 112° Southeast 270 311 6,500 -1,200 Descending FlightAware
04:23AM 52.4590 4.2390 114° Southeast 267 307 6,200 -1,080 Descending FlightAware
04:23AM 52.4480 4.2840 112° Southeast 262 302 5,800 -1,080 Descending FlightAware
04:23AM 52.4420 4.3080 112° Southeast 262 302 5,500 -1,380 Descending FlightAware
04:24AM 52.4300 4.3570 112° Southeast 259 298 4,900 -1,200 Descending FlightAware
04:24AM 52.4160 4.4110 113° Southeast 253 291 4,400 -720 Descending FlightAware
04:25AM 52.4020 4.4630 114° Southeast 237 273 4,200 -480 Descending FlightAware
04:25AM 52.3910 4.5030 114° Southeast 231 266 4,000 -600 Descending FlightAware
04:26AM 52.3790 4.5500 113° Southeast 229 264 3,700 -1,080 Descending FlightAware
04:26AM 52.3730 4.5750 111° Southeast 242 278 3,200 -1,200 Descending FlightAware
04:26AM 52.3610 4.6170 115° Southeast 232 267 2,900 -600 Descending FlightAware
04:26AM 52.3540 4.6360 121° Southeast 229 264 2,800 -420 Descending FlightAware
04:27AM 52.3380 4.6480 155° Southeast 221 254 2,700 -180 Descending FlightAware
04:27AM 52.3140 4.6250 210° Southwest 200 230 2,700 -180 Level FlightAware
04:27AM 52.3090 4.6070 246° West 196 226 2,600 -900 Descending FlightAware
04:28AM 52.2980 4.5720 243° Southwest 198 228 2,100 -900 Descending FlightAware
04:28AM 52.2810 4.5390 230° Southwest 183 211 1,800 -360 Descending FlightAware
04:29AM 52.2540 4.5590 156° South 169 194 1,700 -120 Descending FlightAware
04:29AM 52.2470 4.5740 127° Southeast 167 192 1,700 -240 Level FlightAware
04:29AM 52.2460 4.5830 100° East 168 193 1,600 -480 Descending FlightAware
04:30AM 52.2490 4.6200 82° East 145 167 1,400 -600 Descending FlightAware
04:30AM 52.2560 4.6500 69° East 139 160 1,000 -840 Descending FlightAware
04:31AM 52.2650 4.6760 60° Northeast 132 152 600 -780 Descending FlightAware
04:31AM 52.2730 4.6960 57° Northeast 132 152 300 -720 Descending FlightAware
04:32AM 52.2830 4.7210 57° Northeast 129 148 -600 Descending FlightAware
04:32AM 52.2890 4.7370 58° Northeast 128 147  Level FlightAware